createdAt,value
2023-05-09T00:01:59.124Z,47.87
2023-05-09T00:06:59.115Z,47.79
2023-05-09T00:11:59.128Z,47.64
2023-05-09T00:16:59.119Z,47.76
2023-05-09T00:21:59.131Z,47.84
2023-05-09T00:26:59.133Z,47.86
2023-05-09T00:31:59.124Z,47.7
2023-05-09T00:36:59.136Z,47.53
2023-05-09T00:41:59.127Z,47.64
2023-05-09T00:46:59.140Z,47.6
2023-05-09T00:51:59.141Z,47.47
2023-05-09T00:56:59.144Z,47.47
2023-05-09T01:01:59.146Z,47.86
2023-05-09T01:06:59.136Z,47.65
2023-05-09T01:11:59.149Z,47.95
2023-05-09T01:16:59.139Z,48.02
2023-05-09T01:21:59.152Z,48.36
2023-05-09T01:26:59.153Z,48.59
2023-05-09T01:31:59.144Z,48.5
2023-05-09T01:36:59.156Z,48.81
2023-05-09T01:41:59.148Z,49.14
2023-05-09T01:46:59.160Z,49.47
2023-05-09T01:51:59.161Z,49.49
2023-05-09T01:56:59.164Z,49.59
2023-05-09T02:01:59.165Z,49.15
2023-05-09T02:06:59.156Z,49.04
2023-05-09T02:11:59.167Z,48.82
2023-05-09T02:16:59.159Z,48.41
2023-05-09T02:21:59.171Z,48.51
2023-05-09T02:26:59.172Z,48.29
2023-05-09T02:31:59.163Z,47.92
2023-05-09T02:36:59.175Z,47.74
2023-05-09T02:41:59.167Z,47.65
2023-05-09T02:46:59.179Z,47.71
2023-05-09T02:51:59.170Z,47.83
2023-05-09T02:56:59.183Z,47.85
2023-05-09T03:01:59.223Z,47.93
2023-05-09T03:06:59.175Z,47.77
2023-05-09T03:11:59.186Z,47.6
2023-05-09T03:16:59.178Z,47.83
2023-05-09T03:21:59.191Z,47.89
2023-05-09T03:26:59.191Z,47.72
2023-05-09T03:31:59.194Z,47.46
2023-05-09T03:36:59.196Z,47.57
2023-05-09T03:41:59.186Z,47.57
2023-05-09T03:46:59.199Z,47.76
2023-05-09T03:51:59.189Z,47.6
2023-05-09T03:56:59.202Z,47.68
2023-05-09T04:01:59.202Z,47.87
2023-05-09T04:06:59.194Z,47.81
2023-05-09T04:11:59.206Z,47.61
2023-05-09T04:16:59.196Z,47.51
2023-05-09T04:21:59.210Z,47.35
2023-05-09T04:26:59.210Z,47.14
2023-05-09T04:31:59.213Z,47
2023-05-09T04:36:59.213Z,46.82
2023-05-09T04:41:59.205Z,46.61
2023-05-09T04:46:59.217Z,46.52
2023-05-09T04:51:59.208Z,46.46
2023-05-09T04:56:59.221Z,46.37
2023-05-09T05:01:59.222Z,46.1
2023-05-09T05:06:59.212Z,46.11
2023-05-09T05:11:59.225Z,46.41
2023-05-09T05:16:59.216Z,45.98
2023-05-09T05:21:59.229Z,45.93
2023-05-09T05:26:59.220Z,46.06
2023-05-09T05:31:59.232Z,45.86
2023-05-09T05:36:59.233Z,46.45
2023-05-09T05:41:59.225Z,46.24
2023-05-09T05:46:59.236Z,46.29
2023-05-09T05:51:59.228Z,46.35
2023-05-09T05:57:15.718Z,46.37
2023-05-09T06:01:59.241Z,46.79
2023-05-09T06:06:59.244Z,46.73
2023-05-09T06:11:59.247Z,47.17
2023-05-09T06:16:59.236Z,47.11
2023-05-09T06:21:59.249Z,46.92
2023-05-09T06:26:59.240Z,46.5
2023-05-09T06:31:59.252Z,46.22
2023-05-09T06:36:59.253Z,46.36
2023-05-09T06:41:59.245Z,46.18
2023-05-09T06:46:59.258Z,46
2023-05-09T06:51:59.248Z,45.93
2023-05-09T06:56:59.261Z,45.82
2023-05-09T07:01:59.262Z,45.53
2023-05-09T07:06:59.264Z,45.27
2023-05-09T07:11:59.266Z,45.12
2023-05-09T07:16:59.257Z,45.15
2023-05-09T07:21:59.268Z,45.12
2023-05-09T07:26:59.260Z,45.34
2023-05-09T07:31:59.273Z,45.39
2023-05-09T07:36:59.275Z,45.04
2023-05-09T07:41:59.265Z,44.7
2023-05-09T07:46:59.279Z,45.09
2023-05-09T07:51:59.269Z,44.66
2023-05-09T07:56:59.282Z,44.6
2023-05-09T08:01:59.283Z,44.21
2023-05-09T08:06:59.286Z,44.39
2023-05-09T08:11:59.311Z,44.16
2023-05-09T08:16:59.279Z,33.28
2023-05-09T08:21:59.295Z,28.26
2023-05-09T08:26:59.284Z,26.69
2023-05-09T08:31:59.297Z,27.58
2023-05-09T08:36:59.299Z,26.95
2023-05-09T08:41:59.303Z,28.8
2023-05-09T08:46:59.307Z,28.89
2023-05-09T08:51:59.297Z,28.81
2023-05-09T08:56:59.311Z,29.73
2023-05-09T09:01:59.303Z,30.54
2023-05-09T09:06:59.317Z,31.34
2023-05-09T09:11:59.319Z,31.42
2023-05-09T09:16:59.311Z,32.91
2023-05-09T09:21:59.326Z,33.64
2023-05-09T09:26:59.317Z,35.1
2023-05-09T09:31:59.331Z,35.35
2023-05-09T09:36:59.334Z,36
2023-05-09T09:41:59.337Z,36.89
2023-05-09T09:46:59.338Z,36.63
2023-05-09T09:51:59.331Z,36.65
2023-05-09T09:56:59.345Z,37.66
2023-05-09T10:01:59.337Z,37.74
2023-05-09T10:06:59.351Z,37.95
2023-05-09T10:11:59.352Z,36.32
2023-05-09T10:16:59.344Z,36.7
2023-05-09T10:21:59.360Z,37.34
2023-05-09T10:26:59.351Z,38.14
2023-05-09T10:31:59.365Z,37.9
2023-05-09T10:36:59.357Z,37
2023-05-09T10:41:59.371Z,39.36
2023-05-09T10:46:59.372Z,38.8
2023-05-09T10:51:59.365Z,39.57
2023-05-09T10:56:59.404Z,40.03
2023-05-09T11:01:59.371Z,40.71
2023-05-09T11:06:59.386Z,39.37
2023-05-09T11:11:59.387Z,39.34
2023-05-09T11:16:59.391Z,37.86
2023-05-09T11:21:59.394Z,37.89
2023-05-09T11:26:59.385Z,37.85
2023-05-09T11:31:59.398Z,38.68
2023-05-09T11:36:59.391Z,38.83
2023-05-09T11:41:59.404Z,37.92
2023-05-09T11:46:59.407Z,37.91
2023-05-09T11:51:59.400Z,38.8
2023-05-09T11:56:59.415Z,39.14
2023-05-09T12:01:59.406Z,38.3
2023-05-09T12:06:59.418Z,38.83
2023-05-09T12:11:59.422Z,39.26
2023-05-09T12:16:59.424Z,39.38
2023-05-09T12:21:59.428Z,39.34
2023-05-09T12:26:59.420Z,39.69
2023-05-09T12:31:59.433Z,39.73
2023-05-09T12:36:59.426Z,40.59
2023-05-09T12:41:59.439Z,40.1
2023-05-09T12:46:59.442Z,40.39
2023-05-09T12:51:59.435Z,40.07
2023-05-09T12:56:59.450Z,39.44
2023-05-09T13:01:59.441Z,40.25
2023-05-09T13:06:59.453Z,40.35
2023-05-09T13:11:59.456Z,40.24
2023-05-09T13:16:59.459Z,40.5
2023-05-09T13:21:59.512Z,38.2
2023-05-09T13:26:59.455Z,38.4
2023-05-09T13:31:59.512Z,38.43
2023-05-09T13:36:59.461Z,42.88
2023-05-09T13:42:15.951Z,43.36
2023-05-09T13:46:59.477Z,43.71
2023-05-09T13:51:59.479Z,43.15
2023-05-09T13:56:59.484Z,44.04
2023-05-09T14:01:59.475Z,45.43
2023-05-09T14:06:59.488Z,45.85
2023-05-09T14:11:59.481Z,47.33
2023-05-09T14:16:59.493Z,43.31
2023-05-09T14:21:59.496Z,43.41
2023-05-09T14:26:59.489Z,44.99
2023-05-09T14:31:59.504Z,45.57
2023-05-09T14:36:59.494Z,46.66
2023-05-09T14:41:59.507Z,46.46
2023-05-09T14:46:59.510Z,47.83
2023-05-09T14:51:59.513Z,47.41
2023-05-09T14:56:59.517Z,45.55
2023-05-09T15:01:59.508Z,44.97
2023-05-09T15:06:59.521Z,46.29
2023-05-09T15:11:59.513Z,46.9
2023-05-09T15:16:59.526Z,46.79
2023-05-09T15:21:59.529Z,45.28
2023-05-09T15:26:59.520Z,45.59
2023-05-09T15:31:59.534Z,45.62
2023-05-09T15:36:59.527Z,47.62
2023-05-09T15:41:59.539Z,48.51
2023-05-09T15:46:59.542Z,47.92
2023-05-09T15:51:59.544Z,46.12
2023-05-09T15:56:59.549Z,45.71
2023-05-09T16:01:59.540Z,46.71
2023-05-09T16:06:59.552Z,48.07
2023-05-09T16:11:59.545Z,49
2023-05-09T16:16:59.557Z,48.9
2023-05-09T16:21:59.560Z,48.48
2023-05-09T16:26:59.612Z,47.13
2023-05-09T16:31:59.567Z,47.42
2023-05-09T16:36:59.557Z,47.26
2023-05-09T16:41:59.570Z,47.57
2023-05-09T16:46:59.562Z,48
2023-05-09T16:51:59.575Z,48.44
2023-05-09T16:56:59.619Z,48.75
2023-05-09T17:01:59.570Z,49
2023-05-09T17:06:59.584Z,49.45
2023-05-09T17:11:59.575Z,49.54
2023-05-09T17:16:59.587Z,49.45
2023-05-09T17:21:59.589Z,49.39
2023-05-09T17:26:59.592Z,49.67
2023-05-09T17:31:59.596Z,49.48
2023-05-09T17:36:59.587Z,49.43
2023-05-09T17:41:59.599Z,49.32
2023-05-09T17:46:59.591Z,49.45
2023-05-09T17:51:59.604Z,49.15
2023-05-09T17:56:59.606Z,49.17
2023-05-09T18:01:59.598Z,49.13
2023-05-09T18:06:59.613Z,49.24
2023-05-09T18:11:59.602Z,49.35
2023-05-09T18:16:59.615Z,49.64
2023-05-09T18:21:59.617Z,49.62
2023-05-09T18:26:59.620Z,49.38
2023-05-09T18:31:59.624Z,49.49
2023-05-09T18:36:59.614Z,49.21
2023-05-09T18:41:59.627Z,49.29
2023-05-09T18:46:59.619Z,48.91
2023-05-09T18:51:59.655Z,48.77
2023-05-09T18:56:59.633Z,48.65
2023-05-09T19:01:59.626Z,49.02
2023-05-09T19:06:59.640Z,50.66
2023-05-09T19:11:59.640Z,52.41
2023-05-09T19:16:59.642Z,54.02
2023-05-09T19:21:59.634Z,53.86
2023-05-09T19:26:59.646Z,53.79
2023-05-09T19:31:59.648Z,53.96
2023-05-09T19:36:59.639Z,53.72
2023-05-09T19:41:59.653Z,53.47
2023-05-09T19:46:59.643Z,53.37
2023-05-09T19:51:59.655Z,53.59
2023-05-09T19:56:59.657Z,53.5
2023-05-09T20:01:59.659Z,52.96
2023-05-09T20:06:59.660Z,52.72
2023-05-09T20:11:59.652Z,52.56
2023-05-09T20:16:59.664Z,52.32
2023-05-09T20:21:59.656Z,52.18
2023-05-09T20:26:59.667Z,51.53
2023-05-09T20:31:59.669Z,51.51
2023-05-09T20:36:59.661Z,51.4
2023-05-09T20:41:59.675Z,51.05
2023-05-09T20:46:59.664Z,50.82
2023-05-09T20:51:59.676Z,50.87
2023-05-09T20:56:59.679Z,50.51
2023-05-09T21:01:59.680Z,50.51
2023-05-09T21:06:59.683Z,50.22
2023-05-09T21:11:59.673Z,50.32
2023-05-09T21:16:59.685Z,50.45
2023-05-09T21:22:16.154Z,50.27
2023-05-09T21:26:59.689Z,50.22
2023-05-09T21:31:59.691Z,49.83
2023-05-09T21:36:59.682Z,49.63
2023-05-09T21:41:59.694Z,49.5
2023-05-09T21:46:59.696Z,49.81
2023-05-09T21:51:59.697Z,49.89
2023-05-09T21:56:59.699Z,49.63
2023-05-09T22:01:59.701Z,49.41
2023-05-09T22:06:59.767Z,49.27
2023-05-09T22:11:59.694Z,49.36
2023-05-09T22:16:59.750Z,49.22
2023-05-09T22:21:59.698Z,48.88
2023-05-09T22:26:59.710Z,48.77
2023-05-09T22:31:59.711Z,48.74
2023-05-09T22:36:59.713Z,48.68
2023-05-09T22:41:59.715Z,48.82
2023-05-09T22:46:59.707Z,48.95
2023-05-09T22:51:59.718Z,48.96
2023-05-09T22:56:59.710Z,49.2
2023-05-09T23:01:59.722Z,48.98
2023-05-09T23:06:59.724Z,48.89
2023-05-09T23:11:59.715Z,49.06
2023-05-09T23:16:59.727Z,49.42
2023-05-09T23:21:59.719Z,49.6
2023-05-09T23:26:59.731Z,49.57
2023-05-09T23:31:59.733Z,49.97
2023-05-09T23:36:59.734Z,49.97
2023-05-09T23:41:59.736Z,49.78
2023-05-09T23:46:59.727Z,49.72
2023-05-09T23:51:59.739Z,49.57
2023-05-09T23:56:59.731Z,49.65
